sensor_id;sensor_type;location;lat;lon;timestamp;P1;durP1;ratioP1;P2;durP2;ratioP2
572;SDS011;271;51.114;13.780;2023-08-06T00:01:38;20.67;;;6.37;;
572;SDS011;271;51.114;13.780;2023-08-06T00:04:26;20.90;;;6.47;;
572;SDS011;271;51.114;13.780;2023-08-06T00:07:14;25.30;;;7.17;;
572;SDS011;271;51.114;13.780;2023-08-06T00:10:02;20.30;;;5.90;;
572;SDS011;271;51.114;13.780;2023-08-06T00:12:49;20.10;;;5.77;;
572;SDS011;271;51.114;13.780;2023-08-06T00:15:38;20.90;;;6.00;;
572;SDS011;271;51.114;13.780;2023-08-06T00:18:26;21.00;;;5.53;;
572;SDS011;271;51.114;13.780;2023-08-06T00:21:14;19.47;;;5.57;;
572;SDS011;271;51.114;13.780;2023-08-06T00:24:02;20.90;;;6.50;;
572;SDS011;271;51.114;13.780;2023-08-06T00:26:50;20.40;;;6.40;;
572;SDS011;271;51.114;13.780;2023-08-06T00:29:38;20.30;;;6.17;;
572;SDS011;271;51.114;13.780;2023-08-06T00:32:27;20.27;;;5.90;;
572;SDS011;271;51.114;13.780;2023-08-06T00:35:14;21.10;;;6.53;;
572;SDS011;271;51.114;13.780;2023-08-06T00:38:02;24.70;;;6.97;;
572;SDS011;271;51.114;13.780;2023-08-06T00:40:50;21.00;;;6.50;;
572;SDS011;271;51.114;13.780;2023-08-06T00:43:39;20.93;;;7.23;;
572;SDS011;271;51.114;13.780;2023-08-06T00:46:26;23.20;;;7.27;;
572;SDS011;271;51.114;13.780;2023-08-06T00:49:16;19.60;;;6.20;;
572;SDS011;271;51.114;13.780;2023-08-06T00:52:04;20.80;;;7.07;;
572;SDS011;271;51.114;13.780;2023-08-06T00:54:53;20.40;;;6.60;;
572;SDS011;271;51.114;13.780;2023-08-06T00:57:41;20.90;;;6.80;;
572;SDS011;271;51.114;13.780;2023-08-06T01:00:29;20.70;;;6.03;;
572;SDS011;271;51.114;13.780;2023-08-06T01:03:17;21.00;;;6.23;;
572;SDS011;271;51.114;13.780;2023-08-06T01:06:06;23.33;;;6.90;;
572;SDS011;271;51.114;13.780;2023-08-06T01:08:55;20.97;;;7.00;;
572;SDS011;271;51.114;13.780;2023-08-06T01:11:50;21.47;;;6.47;;
572;SDS011;271;51.114;13.780;2023-08-06T01:14:48;21.80;;;6.80;;
572;SDS011;271;51.114;13.780;2023-08-06T01:17:45;21.00;;;7.00;;
572;SDS011;271;51.114;13.780;2023-08-06T01:20:34;21.60;;;8.50;;
572;SDS011;271;51.114;13.780;2023-08-06T01:23:22;20.93;;;6.30;;
572;SDS011;271;51.114;13.780;2023-08-06T01:26:12;19.93;;;6.20;;
572;SDS011;271;51.114;13.780;2023-08-06T01:29:07;21.17;;;7.00;;
572;SDS011;271;51.114;13.780;2023-08-06T01:32:02;22.97;;;6.63;;
572;SDS011;271;51.114;13.780;2023-08-06T01:34:52;20.67;;;6.33;;
572;SDS011;271;51.114;13.780;2023-08-06T01:37:42;20.60;;;6.17;;
572;SDS011;271;51.114;13.780;2023-08-06T01:40:31;20.60;;;6.40;;
572;SDS011;271;51.114;13.780;2023-08-06T01:43:19;21.50;;;6.13;;
572;SDS011;271;51.114;13.780;2023-08-06T01:46:06;21.37;;;6.60;;
572;SDS011;271;51.114;13.780;2023-08-06T01:48:54;19.63;;;5.60;;
572;SDS011;271;51.114;13.780;2023-08-06T01:51:42;20.60;;;6.60;;
572;SDS011;271;51.114;13.780;2023-08-06T01:54:31;20.10;;;6.17;;
572;SDS011;271;51.114;13.780;2023-08-06T01:57:18;21.20;;;6.33;;
572;SDS011;271;51.114;13.780;2023-08-06T02:00:06;21.00;;;7.17;;
572;SDS011;271;51.114;13.780;2023-08-06T02:02:55;21.87;;;7.10;;
572;SDS011;271;51.114;13.780;2023-08-06T02:05:42;20.57;;;6.57;;
572;SDS011;271;51.114;13.780;2023-08-06T02:08:31;21.90;;;7.17;;
572;SDS011;271;51.114;13.780;2023-08-06T02:11:20;21.70;;;7.17;;
572;SDS011;271;51.114;13.780;2023-08-06T02:14:08;20.93;;;6.57;;
572;SDS011;271;51.114;13.780;2023-08-06T02:16:55;20.53;;;6.50;;
572;SDS011;271;51.114;13.780;2023-08-06T02:19:43;20.63;;;6.43;;
572;SDS011;271;51.114;13.780;2023-08-06T02:22:31;21.00;;;7.00;;
572;SDS011;271;51.114;13.780;2023-08-06T02:25:19;21.67;;;6.10;;
572;SDS011;271;51.114;13.780;2023-08-06T02:28:08;21.50;;;5.90;;
572;SDS011;271;51.114;13.780;2023-08-06T02:30:55;19.57;;;6.07;;
572;SDS011;271;51.114;13.780;2023-08-06T02:33:43;20.17;;;5.87;;
572;SDS011;271;51.114;13.780;2023-08-06T02:36:31;22.27;;;7.03;;
572;SDS011;271;51.114;13.780;2023-08-06T02:39:19;21.60;;;6.70;;
572;SDS011;271;51.114;13.780;2023-08-06T02:42:06;20.10;;;6.17;;
572;SDS011;271;51.114;13.780;2023-08-06T02:44:56;19.50;;;5.70;;
572;SDS011;271;51.114;13.780;2023-08-06T02:47:44;20.80;;;6.23;;
572;SDS011;271;51.114;13.780;2023-08-06T02:50:37;21.03;;;6.80;;
572;SDS011;271;51.114;13.780;2023-08-06T02:53:26;22.20;;;7.13;;
572;SDS011;271;51.114;13.780;2023-08-06T02:56:13;20.90;;;6.40;;
572;SDS011;271;51.114;13.780;2023-08-06T02:59:01;20.47;;;6.73;;
572;SDS011;271;51.114;13.780;2023-08-06T03:01:50;19.57;;;5.87;;
572;SDS011;271;51.114;13.780;2023-08-06T03:04:38;23.60;;;7.13;;
572;SDS011;271;51.114;13.780;2023-08-06T03:07:26;19.90;;;6.00;;
572;SDS011;271;51.114;13.780;2023-08-06T03:10:13;19.93;;;6.07;;
572;SDS011;271;51.114;13.780;2023-08-06T03:13:01;22.00;;;6.00;;
572;SDS011;271;51.114;13.780;2023-08-06T03:15:52;20.80;;;5.57;;
572;SDS011;271;51.114;13.780;2023-08-06T03:18:42;21.00;;;6.40;;
572;SDS011;271;51.114;13.780;2023-08-06T03:21:30;21.50;;;7.10;;
572;SDS011;271;51.114;13.780;2023-08-06T03:24:17;20.93;;;6.43;;
572;SDS011;271;51.114;13.780;2023-08-06T03:27:05;21.93;;;6.80;;
572;SDS011;271;51.114;13.780;2023-08-06T03:29:53;19.80;;;5.93;;
572;SDS011;271;51.114;13.780;2023-08-06T03:32:40;20.50;;;6.33;;
572;SDS011;271;51.114;13.780;2023-08-06T03:35:29;20.10;;;6.00;;
572;SDS011;271;51.114;13.780;2023-08-06T03:38:17;21.73;;;6.80;;
572;SDS011;271;51.114;13.780;2023-08-06T03:41:05;22.13;;;7.03;;
572;SDS011;271;51.114;13.780;2023-08-06T03:43:52;20.47;;;6.30;;
572;SDS011;271;51.114;13.780;2023-08-06T03:46:40;20.90;;;7.17;;
572;SDS011;271;51.114;13.780;2023-08-06T03:49:28;23.30;;;6.33;;
572;SDS011;271;51.114;13.780;2023-08-06T03:52:17;19.87;;;6.10;;
572;SDS011;271;51.114;13.780;2023-08-06T03:55:05;19.60;;;5.13;;
572;SDS011;271;51.114;13.780;2023-08-06T03:57:53;18.80;;;4.90;;
572;SDS011;271;51.114;13.780;2023-08-06T04:00:40;19.70;;;5.63;;
572;SDS011;271;51.114;13.780;2023-08-06T04:03:28;19.53;;;5.10;;
572;SDS011;271;51.114;13.780;2023-08-06T04:06:16;18.60;;;4.67;;
572;SDS011;271;51.114;13.780;2023-08-06T04:09:05;19.63;;;5.40;;
572;SDS011;271;51.114;13.780;2023-08-06T04:11:53;19.03;;;5.10;;
572;SDS011;271;51.114;13.780;2023-08-06T04:14:40;19.33;;;5.00;;
572;SDS011;271;51.114;13.780;2023-08-06T04:17:28;20.43;;;5.47;;
572;SDS011;271;51.114;13.780;2023-08-06T04:20:16;19.03;;;4.83;;
572;SDS011;271;51.114;13.780;2023-08-06T04:23:05;18.90;;;5.30;;
572;SDS011;271;51.114;13.780;2023-08-06T04:25:57;20.20;;;5.57;;
572;SDS011;271;51.114;13.780;2023-08-06T04:28:45;18.37;;;4.63;;
572;SDS011;271;51.114;13.780;2023-08-06T04:31:33;19.20;;;4.83;;
572;SDS011;271;51.114;13.780;2023-08-06T04:34:20;18.30;;;4.50;;
572;SDS011;271;51.114;13.780;2023-08-06T04:37:08;19.40;;;5.37;;
572;SDS011;271;51.114;13.780;2023-08-06T04:39:56;19.13;;;5.20;;
572;SDS011;271;51.114;13.780;2023-08-06T04:42:45;19.40;;;5.20;;
572;SDS011;271;51.114;13.780;2023-08-06T04:45:32;17.97;;;3.90;;
572;SDS011;271;51.114;13.780;2023-08-06T04:48:20;18.33;;;4.67;;
572;SDS011;271;51.114;13.780;2023-08-06T04:51:08;18.17;;;3.93;;
572;SDS011;271;51.114;13.780;2023-08-06T04:53:56;18.40;;;4.07;;
572;SDS011;271;51.114;13.780;2023-08-06T04:56:44;18.50;;;4.30;;
572;SDS011;271;51.114;13.780;2023-08-06T04:59:33;17.90;;;3.40;;
572;SDS011;271;51.114;13.780;2023-08-06T05:02:20;19.80;;;4.70;;
572;SDS011;271;51.114;13.780;2023-08-06T05:05:08;18.40;;;4.13;;
572;SDS011;271;51.114;13.780;2023-08-06T05:07:56;18.37;;;4.30;;
572;SDS011;271;51.114;13.780;2023-08-06T05:10:44;18.33;;;4.20;;
572;SDS011;271;51.114;13.780;2023-08-06T05:13:32;18.50;;;4.37;;
572;SDS011;271;51.114;13.780;2023-08-06T05:16:21;17.70;;;3.80;;
572;SDS011;271;51.114;13.780;2023-08-06T05:19:09;18.70;;;4.03;;
572;SDS011;271;51.114;13.780;2023-08-06T05:21:57;18.30;;;3.70;;
572;SDS011;271;51.114;13.780;2023-08-06T05:24:44;17.97;;;3.70;;
572;SDS011;271;51.114;13.780;2023-08-06T05:27:32;18.37;;;3.83;;
572;SDS011;271;51.114;13.780;2023-08-06T05:30:19;17.83;;;3.50;;
572;SDS011;271;51.114;13.780;2023-08-06T05:33:08;18.40;;;3.70;;
572;SDS011;271;51.114;13.780;2023-08-06T05:35:56;17.73;;;3.17;;
572;SDS011;271;51.114;13.780;2023-08-06T05:38:44;17.50;;;3.07;;
572;SDS011;271;51.114;13.780;2023-08-06T05:41:32;17.50;;;3.00;;
572;SDS011;271;51.114;13.780;2023-08-06T05:44:19;18.90;;;4.20;;
572;SDS011;271;51.114;13.780;2023-08-06T05:47:07;17.90;;;3.73;;
572;SDS011;271;51.114;13.780;2023-08-06T05:49:56;17.67;;;3.37;;
572;SDS011;271;51.114;13.780;2023-08-06T05:52:44;18.10;;;4.00;;
572;SDS011;271;51.114;13.780;2023-08-06T05:55:31;17.60;;;3.67;;
572;SDS011;271;51.114;13.780;2023-08-06T05:58:19;20.27;;;3.60;;
572;SDS011;271;51.114;13.780;2023-08-06T06:01:07;18.10;;;3.67;;
572;SDS011;271;51.114;13.780;2023-08-06T06:03:55;18.83;;;4.10;;
572;SDS011;271;51.114;13.780;2023-08-06T06:06:44;17.90;;;4.00;;
572;SDS011;271;51.114;13.780;2023-08-06T06:09:31;18.37;;;4.00;;
572;SDS011;271;51.114;13.780;2023-08-06T06:12:19;19.87;;;5.30;;
572;SDS011;271;51.114;13.780;2023-08-06T06:15:08;18.60;;;4.67;;
572;SDS011;271;51.114;13.780;2023-08-06T06:17:56;19.00;;;4.53;;
572;SDS011;271;51.114;13.780;2023-08-06T06:20:44;19.57;;;4.73;;
572;SDS011;271;51.114;13.780;2023-08-06T06:23:33;19.83;;;5.10;;
572;SDS011;271;51.114;13.780;2023-08-06T06:26:21;18.67;;;4.80;;
572;SDS011;271;51.114;13.780;2023-08-06T06:29:08;19.00;;;4.87;;
572;SDS011;271;51.114;13.780;2023-08-06T06:31:56;19.10;;;4.40;;
572;SDS011;271;51.114;13.780;2023-08-06T06:34:44;19.17;;;4.50;;
572;SDS011;271;51.114;13.780;2023-08-06T06:37:31;19.70;;;4.70;;
572;SDS011;271;51.114;13.780;2023-08-06T06:40:20;18.27;;;3.80;;
572;SDS011;271;51.114;13.780;2023-08-06T06:43:08;19.07;;;4.70;;
572;SDS011;271;51.114;13.780;2023-08-06T06:45:56;18.70;;;4.60;;
572;SDS011;271;51.114;13.780;2023-08-06T06:48:44;20.70;;;4.13;;
572;SDS011;271;51.114;13.780;2023-08-06T06:51:32;18.13;;;3.90;;
572;SDS011;271;51.114;13.780;2023-08-06T06:54:20;19.03;;;3.83;;
572;SDS011;271;51.114;13.780;2023-08-06T06:57:12;18.60;;;4.37;;
572;SDS011;271;51.114;13.780;2023-08-06T06:59:59;18.30;;;3.77;;
572;SDS011;271;51.114;13.780;2023-08-06T07:02:47;18.27;;;3.70;;
572;SDS011;271;51.114;13.780;2023-08-06T07:05:35;18.10;;;3.60;;
572;SDS011;271;51.114;13.780;2023-08-06T07:08:23;17.70;;;3.47;;
572;SDS011;271;51.114;13.780;2023-08-06T07:11:11;17.30;;;3.03;;
572;SDS011;271;51.114;13.780;2023-08-06T07:14:01;18.03;;;3.07;;
572;SDS011;271;51.114;13.780;2023-08-06T07:16:49;17.27;;;2.80;;
572;SDS011;271;51.114;13.780;2023-08-06T07:19:49;18.03;;;3.43;;
572;SDS011;271;51.114;13.780;2023-08-06T07:22:44;17.60;;;3.07;;
572;SDS011;271;51.114;13.780;2023-08-06T07:25:39;19.50;;;3.70;;
572;SDS011;271;51.114;13.780;2023-08-06T07:28:26;19.00;;;4.00;;
572;SDS011;271;51.114;13.780;2023-08-06T07:31:16;20.00;;;5.60;;
572;SDS011;271;51.114;13.780;2023-08-06T07:34:04;19.00;;;4.70;;
572;SDS011;271;51.114;13.780;2023-08-06T07:36:55;19.60;;;5.00;;
572;SDS011;271;51.114;13.780;2023-08-06T07:39:43;18.80;;;4.20;;
572;SDS011;271;51.114;13.780;2023-08-06T07:42:30;19.70;;;4.93;;
572;SDS011;271;51.114;13.780;2023-08-06T07:45:18;20.23;;;5.90;;
572;SDS011;271;51.114;13.780;2023-08-06T07:48:07;22.73;;;7.17;;
572;SDS011;271;51.114;13.780;2023-08-06T07:50:55;21.63;;;7.90;;
572;SDS011;271;51.114;13.780;2023-08-06T07:53:43;21.40;;;7.20;;
572;SDS011;271;51.114;13.780;2023-08-06T07:56:31;20.30;;;5.73;;
572;SDS011;271;51.114;13.780;2023-08-06T07:59:19;21.47;;;7.10;;
572;SDS011;271;51.114;13.780;2023-08-06T08:02:06;21.53;;;7.47;;
572;SDS011;271;51.114;13.780;2023-08-06T08:04:55;22.47;;;8.47;;
572;SDS011;271;51.114;13.780;2023-08-06T08:07:43;20.20;;;6.90;;
572;SDS011;271;51.114;13.780;2023-08-06T08:10:31;21.80;;;7.70;;
572;SDS011;271;51.114;13.780;2023-08-06T08:13:18;19.87;;;6.50;;
572;SDS011;271;51.114;13.780;2023-08-06T08:16:10;21.00;;;8.13;;
572;SDS011;271;51.114;13.780;2023-08-06T08:18:57;21.40;;;7.80;;
572;SDS011;271;51.114;13.780;2023-08-06T08:21:46;21.33;;;7.93;;
572;SDS011;271;51.114;13.780;2023-08-06T08:24:34;21.53;;;7.47;;
572;SDS011;271;51.114;13.780;2023-08-06T08:27:25;20.80;;;6.77;;
572;SDS011;271;51.114;13.780;2023-08-06T08:30:13;19.47;;;5.40;;
572;SDS011;271;51.114;13.780;2023-08-06T08:33:03;19.93;;;5.60;;
572;SDS011;271;51.114;13.780;2023-08-06T08:35:51;19.23;;;5.63;;
572;SDS011;271;51.114;13.780;2023-08-06T08:38:40;18.70;;;4.47;;
572;SDS011;271;51.114;13.780;2023-08-06T08:41:28;20.07;;;5.17;;
572;SDS011;271;51.114;13.780;2023-08-06T08:44:19;20.90;;;5.87;;
572;SDS011;271;51.114;13.780;2023-08-06T08:47:07;21.20;;;6.30;;
572;SDS011;271;51.114;13.780;2023-08-06T08:49:55;18.70;;;4.80;;
572;SDS011;271;51.114;13.780;2023-08-06T08:52:44;19.37;;;5.40;;
572;SDS011;271;51.114;13.780;2023-08-06T08:55:36;19.50;;;5.40;;
572;SDS011;271;51.114;13.780;2023-08-06T08:58:25;20.93;;;5.03;;
572;SDS011;271;51.114;13.780;2023-08-06T09:01:13;19.67;;;5.03;;
572;SDS011;271;51.114;13.780;2023-08-06T09:04:01;18.93;;;4.57;;
572;SDS011;271;51.114;13.780;2023-08-06T09:06:50;19.70;;;4.50;;
572;SDS011;271;51.114;13.780;2023-08-06T09:09:38;18.70;;;4.03;;
572;SDS011;271;51.114;13.780;2023-08-06T09:12:29;17.70;;;4.13;;
572;SDS011;271;51.114;13.780;2023-08-06T09:15:17;17.87;;;3.53;;
572;SDS011;271;51.114;13.780;2023-08-06T09:18:08;17.73;;;3.30;;
572;SDS011;271;51.114;13.780;2023-08-06T09:20:57;18.17;;;3.70;;
572;SDS011;271;51.114;13.780;2023-08-06T09:23:45;19.93;;;3.37;;
572;SDS011;271;51.114;13.780;2023-08-06T09:26:33;18.63;;;3.50;;
572;SDS011;271;51.114;13.780;2023-08-06T09:29:22;17.67;;;3.00;;
572;SDS011;271;51.114;13.780;2023-08-06T09:32:10;17.27;;;2.80;;
572;SDS011;271;51.114;13.780;2023-08-06T09:35:01;17.20;;;2.70;;
572;SDS011;271;51.114;13.780;2023-08-06T09:37:51;19.30;;;2.87;;
572;SDS011;271;51.114;13.780;2023-08-06T09:40:39;17.60;;;2.77;;
572;SDS011;271;51.114;13.780;2023-08-06T09:43:27;17.33;;;3.00;;
572;SDS011;271;51.114;13.780;2023-08-06T09:46:16;17.63;;;2.90;;
572;SDS011;271;51.114;13.780;2023-08-06T09:49:04;18.93;;;3.30;;
572;SDS011;271;51.114;13.780;2023-08-06T09:51:54;17.33;;;2.97;;
572;SDS011;271;51.114;13.780;2023-08-06T09:54:44;17.40;;;3.13;;
572;SDS011;271;51.114;13.780;2023-08-06T09:57:32;18.20;;;3.03;;
572;SDS011;271;51.114;13.780;2023-08-06T10:00:20;18.90;;;4.17;;
572;SDS011;271;51.114;13.780;2023-08-06T10:03:10;19.33;;;3.17;;
572;SDS011;271;51.114;13.780;2023-08-06T10:06:00;18.13;;;3.30;;
572;SDS011;271;51.114;13.780;2023-08-06T10:08:53;17.47;;;3.37;;
572;SDS011;271;51.114;13.780;2023-08-06T10:11:40;18.37;;;4.20;;
572;SDS011;271;51.114;13.780;2023-08-06T10:14:30;17.93;;;3.93;;
572;SDS011;271;51.114;13.780;2023-08-06T10:17:20;17.60;;;3.33;;
572;SDS011;271;51.114;13.780;2023-08-06T10:20:11;19.70;;;3.87;;
572;SDS011;271;51.114;13.780;2023-08-06T10:22:59;18.10;;;3.97;;
572;SDS011;271;51.114;13.780;2023-08-06T10:25:53;18.03;;;4.03;;
572;SDS011;271;51.114;13.780;2023-08-06T10:28:42;20.30;;;3.70;;
572;SDS011;271;51.114;13.780;2023-08-06T10:34:57;18.10;;;3.93;;
572;SDS011;271;51.114;13.780;2023-08-06T10:41:00;17.70;;;3.87;;
572;SDS011;271;51.114;13.780;2023-08-06T10:43:50;18.97;;;3.90;;
572;SDS011;271;51.114;13.780;2023-08-06T10:46:37;17.97;;;3.53;;
572;SDS011;271;51.114;13.780;2023-08-06T10:49:25;17.70;;;3.57;;
572;SDS011;271;51.114;13.780;2023-08-06T10:52:13;18.67;;;4.43;;
572;SDS011;271;51.114;13.780;2023-08-06T10:55:02;18.50;;;3.80;;
572;SDS011;271;51.114;13.780;2023-08-06T10:57:51;18.27;;;4.20;;
572;SDS011;271;51.114;13.780;2023-08-06T11:00:39;19.13;;;4.97;;
572;SDS011;271;51.114;13.780;2023-08-06T11:03:27;18.27;;;4.50;;
572;SDS011;271;51.114;13.780;2023-08-06T11:06:16;17.90;;;4.00;;
572;SDS011;271;51.114;13.780;2023-08-06T11:09:06;18.10;;;4.10;;
572;SDS011;271;51.114;13.780;2023-08-06T11:11:55;19.33;;;3.50;;
572;SDS011;271;51.114;13.780;2023-08-06T11:14:45;17.03;;;3.90;;
572;SDS011;271;51.114;13.780;2023-08-06T11:17:37;16.90;;;3.53;;
572;SDS011;271;51.114;13.780;2023-08-06T11:20:27;18.90;;;5.70;;
572;SDS011;271;51.114;13.780;2023-08-06T11:23:15;16.57;;;3.47;;
572;SDS011;271;51.114;13.780;2023-08-06T11:26:03;17.40;;;4.20;;
572;SDS011;271;51.114;13.780;2023-08-06T11:28:53;17.97;;;4.23;;
572;SDS011;271;51.114;13.780;2023-08-06T11:31:40;17.70;;;4.17;;
572;SDS011;271;51.114;13.780;2023-08-06T11:34:28;17.73;;;4.60;;
572;SDS011;271;51.114;13.780;2023-08-06T11:37:17;18.40;;;4.03;;
572;SDS011;271;51.114;13.780;2023-08-06T11:40:10;17.50;;;4.00;;
572;SDS011;271;51.114;13.780;2023-08-06T11:42:58;16.10;;;3.23;;
572;SDS011;271;51.114;13.780;2023-08-06T11:45:47;16.87;;;4.20;;
572;SDS011;271;51.114;13.780;2023-08-06T11:51:51;16.50;;;3.60;;
572;SDS011;271;51.114;13.780;2023-08-06T11:54:41;16.00;;;3.30;;
572;SDS011;271;51.114;13.780;2023-08-06T11:57:29;17.17;;;3.50;;
572;SDS011;271;51.114;13.780;2023-08-06T12:00:22;16.23;;;3.10;;
572;SDS011;271;51.114;13.780;2023-08-06T12:03:12;17.57;;;3.70;;
572;SDS011;271;51.114;13.780;2023-08-06T12:06:00;18.40;;;3.50;;
572;SDS011;271;51.114;13.780;2023-08-06T12:08:48;17.60;;;3.80;;
572;SDS011;271;51.114;13.780;2023-08-06T12:11:36;17.33;;;3.67;;
572;SDS011;271;51.114;13.780;2023-08-06T12:14:24;18.30;;;3.57;;
572;SDS011;271;51.114;13.780;2023-08-06T12:17:12;18.40;;;4.47;;
572;SDS011;271;51.114;13.780;2023-08-06T12:20:01;19.67;;;5.70;;
572;SDS011;271;51.114;13.780;2023-08-06T12:22:50;18.30;;;4.00;;
572;SDS011;271;51.114;13.780;2023-08-06T12:25:39;18.13;;;4.13;;
572;SDS011;271;51.114;13.780;2023-08-06T12:28:26;18.27;;;4.00;;
572;SDS011;271;51.114;13.780;2023-08-06T12:31:14;17.47;;;3.40;;
572;SDS011;271;51.114;13.780;2023-08-06T12:34:04;17.37;;;3.53;;
572;SDS011;271;51.114;13.780;2023-08-06T12:36:54;18.90;;;4.23;;
572;SDS011;271;51.114;13.780;2023-08-06T12:39:44;18.27;;;3.50;;
572;SDS011;271;51.114;13.780;2023-08-06T12:42:32;17.43;;;3.13;;
572;SDS011;271;51.114;13.780;2023-08-06T12:45:20;17.90;;;3.60;;
572;SDS011;271;51.114;13.780;2023-08-06T12:48:08;17.40;;;3.63;;
572;SDS011;271;51.114;13.780;2023-08-06T12:50:58;17.80;;;3.27;;
572;SDS011;271;51.114;13.780;2023-08-06T12:53:47;17.17;;;3.70;;
572;SDS011;271;51.114;13.780;2023-08-06T12:56:38;18.67;;;4.20;;
572;SDS011;271;51.114;13.780;2023-08-06T12:59:25;17.30;;;3.33;;
572;SDS011;271;51.114;13.780;2023-08-06T13:02:16;16.60;;;3.30;;
572;SDS011;271;51.114;13.780;2023-08-06T13:05:04;16.83;;;3.57;;
572;SDS011;271;51.114;13.780;2023-08-06T13:07:52;16.50;;;3.03;;
572;SDS011;271;51.114;13.780;2023-08-06T13:10:42;18.60;;;3.60;;
572;SDS011;271;51.114;13.780;2023-08-06T13:13:32;16.20;;;3.00;;
572;SDS011;271;51.114;13.780;2023-08-06T13:16:20;17.03;;;3.17;;
572;SDS011;271;51.114;13.780;2023-08-06T13:19:08;16.47;;;3.20;;
572;SDS011;271;51.114;13.780;2023-08-06T13:22:00;16.90;;;3.13;;
572;SDS011;271;51.114;13.780;2023-08-06T13:24:51;17.00;;;3.37;;
572;SDS011;271;51.114;13.780;2023-08-06T13:27:40;16.80;;;3.43;;
572;SDS011;271;51.114;13.780;2023-08-06T13:30:29;17.00;;;3.27;;
572;SDS011;271;51.114;13.780;2023-08-06T13:33:17;17.33;;;3.00;;
572;SDS011;271;51.114;13.780;2023-08-06T13:36:05;17.07;;;3.70;;
572;SDS011;271;51.114;13.780;2023-08-06T13:38:53;16.80;;;2.70;;
572;SDS011;271;51.114;13.780;2023-08-06T13:41:41;20.07;;;3.33;;
572;SDS011;271;51.114;13.780;2023-08-06T13:44:30;17.50;;;3.20;;
572;SDS011;271;51.114;13.780;2023-08-06T13:47:21;16.87;;;3.43;;
572;SDS011;271;51.114;13.780;2023-08-06T13:50:09;16.80;;;3.47;;
572;SDS011;271;51.114;13.780;2023-08-06T13:52:57;18.73;;;3.80;;
572;SDS011;271;51.114;13.780;2023-08-06T13:55:44;19.93;;;4.43;;
572;SDS011;271;51.114;13.780;2023-08-06T13:58:35;16.87;;;3.37;;
572;SDS011;271;51.114;13.780;2023-08-06T14:01:24;16.93;;;3.70;;
572;SDS011;271;51.114;13.780;2023-08-06T14:04:12;17.97;;;3.70;;
572;SDS011;271;51.114;13.780;2023-08-06T14:07:00;16.73;;;3.47;;
572;SDS011;271;51.114;13.780;2023-08-06T14:09:53;20.43;;;4.00;;
572;SDS011;271;51.114;13.780;2023-08-06T14:12:43;16.90;;;3.67;;
572;SDS011;271;51.114;13.780;2023-08-06T14:15:30;16.97;;;3.80;;
572;SDS011;271;51.114;13.780;2023-08-06T14:18:20;17.00;;;3.77;;
572;SDS011;271;51.114;13.780;2023-08-06T14:21:08;17.57;;;4.00;;
572;SDS011;271;51.114;13.780;2023-08-06T14:23:55;18.20;;;3.63;;
572;SDS011;271;51.114;13.780;2023-08-06T14:26:43;17.57;;;3.70;;
572;SDS011;271;51.114;13.780;2023-08-06T14:29:31;17.57;;;4.53;;
572;SDS011;271;51.114;13.780;2023-08-06T14:32:21;17.27;;;4.40;;
572;SDS011;271;51.114;13.780;2023-08-06T14:35:11;19.67;;;5.33;;
572;SDS011;271;51.114;13.780;2023-08-06T14:37:59;18.73;;;5.33;;
572;SDS011;271;51.114;13.780;2023-08-06T14:40:53;18.83;;;5.90;;
572;SDS011;271;51.114;13.780;2023-08-06T14:43:41;17.83;;;5.37;;
572;SDS011;271;51.114;13.780;2023-08-06T14:46:28;18.50;;;6.27;;
572;SDS011;271;51.114;13.780;2023-08-06T14:49:16;18.30;;;5.90;;
572;SDS011;271;51.114;13.780;2023-08-06T14:52:06;19.07;;;6.77;;
572;SDS011;271;51.114;13.780;2023-08-06T14:54:53;18.00;;;5.40;;
572;SDS011;271;51.114;13.780;2023-08-06T14:57:41;19.10;;;6.50;;
572;SDS011;271;51.114;13.780;2023-08-06T15:00:32;19.77;;;6.87;;
572;SDS011;271;51.114;13.780;2023-08-06T15:03:20;19.40;;;6.90;;
572;SDS011;271;51.114;13.780;2023-08-06T15:06:08;19.13;;;6.43;;
572;SDS011;271;51.114;13.780;2023-08-06T15:08:57;19.10;;;7.13;;
572;SDS011;271;51.114;13.780;2023-08-06T15:11:46;19.37;;;6.30;;
572;SDS011;271;51.114;13.780;2023-08-06T15:14:34;20.50;;;7.23;;
572;SDS011;271;51.114;13.780;2023-08-06T15:17:25;19.30;;;6.70;;
572;SDS011;271;51.114;13.780;2023-08-06T15:20:14;20.97;;;7.03;;
572;SDS011;271;51.114;13.780;2023-08-06T15:23:02;21.27;;;7.77;;
572;SDS011;271;51.114;13.780;2023-08-06T15:25:52;18.50;;;5.40;;
572;SDS011;271;51.114;13.780;2023-08-06T15:28:42;18.70;;;6.20;;
572;SDS011;271;51.114;13.780;2023-08-06T15:31:37;19.23;;;6.03;;
572;SDS011;271;51.114;13.780;2023-08-06T15:34:26;19.40;;;6.60;;
572;SDS011;271;51.114;13.780;2023-08-06T15:37:14;19.40;;;6.40;;
572;SDS011;271;51.114;13.780;2023-08-06T15:40:01;20.77;;;7.00;;
572;SDS011;271;51.114;13.780;2023-08-06T15:42:51;19.10;;;6.00;;
572;SDS011;271;51.114;13.780;2023-08-06T15:45:39;19.60;;;7.10;;
572;SDS011;271;51.114;13.780;2023-08-06T15:48:26;20.70;;;6.83;;
572;SDS011;271;51.114;13.780;2023-08-06T15:51:14;19.60;;;7.00;;
572;SDS011;271;51.114;13.780;2023-08-06T15:54:02;19.47;;;6.80;;
572;SDS011;271;51.114;13.780;2023-08-06T15:56:50;19.50;;;6.83;;
572;SDS011;271;51.114;13.780;2023-08-06T15:59:39;18.20;;;5.50;;
572;SDS011;271;51.114;13.780;2023-08-06T16:02:30;19.80;;;6.20;;
572;SDS011;271;51.114;13.780;2023-08-06T16:05:17;19.67;;;6.40;;
572;SDS011;271;51.114;13.780;2023-08-06T16:08:08;20.10;;;7.07;;
572;SDS011;271;51.114;13.780;2023-08-06T16:10:56;20.00;;;6.40;;
572;SDS011;271;51.114;13.780;2023-08-06T16:13:44;19.70;;;6.63;;
572;SDS011;271;51.114;13.780;2023-08-06T16:16:33;19.73;;;6.90;;
572;SDS011;271;51.114;13.780;2023-08-06T16:19:23;19.60;;;7.07;;
572;SDS011;271;51.114;13.780;2023-08-06T16:22:11;19.90;;;6.67;;
572;SDS011;271;51.114;13.780;2023-08-06T16:24:59;22.57;;;8.73;;
572;SDS011;271;51.114;13.780;2023-08-06T16:27:47;19.50;;;7.40;;
572;SDS011;271;51.114;13.780;2023-08-06T16:30:42;19.60;;;6.30;;
572;SDS011;271;51.114;13.780;2023-08-06T16:33:32;25.10;;;7.80;;
572;SDS011;271;51.114;13.780;2023-08-06T16:36:20;22.47;;;8.87;;
572;SDS011;271;51.114;13.780;2023-08-06T16:39:08;23.30;;;10.40;;
572;SDS011;271;51.114;13.780;2023-08-06T16:41:55;22.47;;;9.70;;
572;SDS011;271;51.114;13.780;2023-08-06T16:44:44;23.83;;;10.30;;
572;SDS011;271;51.114;13.780;2023-08-06T16:47:32;22.67;;;9.60;;
572;SDS011;271;51.114;13.780;2023-08-06T16:50:21;23.57;;;10.23;;
572;SDS011;271;51.114;13.780;2023-08-06T16:53:09;21.40;;;9.30;;
572;SDS011;271;51.114;13.780;2023-08-06T16:55:56;21.23;;;8.77;;
572;SDS011;271;51.114;13.780;2023-08-06T16:58:47;23.20;;;9.57;;
572;SDS011;271;51.114;13.780;2023-08-06T17:01:35;22.40;;;9.30;;
572;SDS011;271;51.114;13.780;2023-08-06T17:04:25;22.73;;;9.00;;
572;SDS011;271;51.114;13.780;2023-08-06T17:07:14;24.30;;;10.13;;
572;SDS011;271;51.114;13.780;2023-08-06T17:10:02;21.73;;;8.47;;
572;SDS011;271;51.114;13.780;2023-08-06T17:12:50;22.17;;;9.13;;
572;SDS011;271;51.114;13.780;2023-08-06T17:15:39;22.10;;;8.60;;
572;SDS011;271;51.114;13.780;2023-08-06T17:18:29;21.87;;;7.83;;
572;SDS011;271;51.114;13.780;2023-08-06T17:21:16;21.67;;;7.93;;
572;SDS011;271;51.114;13.780;2023-08-06T17:24:06;23.77;;;7.90;;
572;SDS011;271;51.114;13.780;2023-08-06T17:27:04;22.57;;;8.50;;
572;SDS011;271;51.114;13.780;2023-08-06T17:29:52;24.23;;;8.30;;
572;SDS011;271;51.114;13.780;2023-08-06T17:32:40;21.70;;;8.20;;
572;SDS011;271;51.114;13.780;2023-08-06T17:35:29;21.00;;;7.27;;
572;SDS011;271;51.114;13.780;2023-08-06T17:38:18;22.30;;;7.30;;